Time;durP1;ratioP1;P1;durP2;ratioP2;P2;SDS_P1;SDS_P2;PMS_P1;PMS_P2;Temp;Humidity;BMP_temperature;BMP_pressure;BME280_temperature;BME280_humidity;BME280_pressure;Samples;Min_cycle;Max_cycle;Signal;HPM_P1;HPM_P2
2021/07/14 00:02:22;;;;;;;18.42;16.10;;;;;;;;;;5031749;28;20025;-76
2021/07/14 00:04:48;;;;;;;18.95;16.90;;;;;;;;;;5031575;28;20488;-76
2021/07/14 00:07:14;;;;;;;19.95;15.88;;;;;;;;;;5013704;28;20036;-76
2021/07/14 00:09:39;;;;;;;17.63;15.48;;;;;;;;;;5031366;28;20485;-76
2021/07/14 00:12:07;;;;;;;18.17;16.27;;;;;;;;;;5030665;28;20025;-76
2021/07/14 00:22:45;;;;;;;17.02;15.30;;;;;;;;;;4975220;28;20043;-76
2021/07/14 00:25:12;;;;;;;18.85;16.23;;;;;;;;;;5050331;28;20046;-76
2021/07/14 00:27:43;;;;;;;18.13;16.30;;;;;;;;;;5050522;28;20029;-76
2021/07/14 00:30:15;;;;;;;17.27;15.57;;;;;;;;;;5049409;28;20124;-76
2021/07/14 00:32:41;;;;;;;17.77;16.08;;;;;;;;;;5046793;28;20524;-77
2021/07/14 00:35:08;;;;;;;18.83;15.55;;;;;;;;;;5048235;28;20116;-76
2021/07/14 00:37:35;;;;;;;17.20;15.23;;;;;;;;;;5049510;28;20495;-75
2021/07/14 00:40:00;;;;;;;18.45;16.65;;;;;;;;;;5032218;28;20021;-77
2021/07/14 00:42:27;;;;;;;16.83;15.05;;;;;;;;;;5048504;28;20559;-76
2021/07/14 00:44:56;;;;;;;18.33;16.42;;;;;;;;;;5036303;28;20034;-76
2021/07/14 00:47:29;;;;;;;20.67;16.20;;;;;;;;;;5035424;28;20061;-76
2021/07/14 00:49:55;;;;;;;17.95;16.23;;;;;;;;;;5035018;28;20093;-76
2021/07/14 00:52:22;;;;;;;17.95;16.05;;;;;;;;;;5033847;28;20045;-76
2021/07/14 00:54:48;;;;;;;17.52;15.73;;;;;;;;;;5033596;28;20501;-76
2021/07/14 00:57:19;;;;;;;17.38;15.77;;;;;;;;;;5034099;28;20219;-76
2021/07/14 00:59:44;;;;;;;17.10;15.50;;;;;;;;;;5034406;28;20029;-76
2021/07/14 01:02:11;;;;;;;17.52;15.80;;;;;;;;;;5035005;28;20108;-76
2021/07/14 01:04:47;;;;;;;18.40;16.30;;;;;;;;;;5034613;28;20021;-76
2021/07/14 01:07:27;;;;;;;17.70;16.00;;;;;;;;;;5042612;28;20412;-76
2021/07/14 01:10:19;;;;;;;17.90;16.20;;;;;;;;;;5033643;28;20025;-77
2021/07/14 01:13:03;;;;;;;18.45;16.15;;;;;;;;;;5033361;28;20424;-77
2021/07/14 01:15:36;;;;;;;19.60;16.02;;;;;;;;;;5033397;28;20394;-76
2021/07/14 01:18:02;;;;;;;;;;;;;;;;;;5037007;28;20025;-76
2021/07/14 01:21:05;;;;;;;18.00;15.95;;;;;;;;;;5034436;28;19924;-77
2021/07/14 01:23:40;;;;;;;18.27;15.07;;;;;;;;;;5045903;28;20070;-77
2021/07/14 01:26:15;;;;;;;18.65;16.60;;;;;;;;;;5051479;28;20120;-76
2021/07/14 01:28:45;;;;;;;19.20;16.85;;;;;;;;;;5051179;28;20024;-77
2021/07/14 01:31:18;;;;;;;19.38;16.35;;;;;;;;;;5033788;28;20033;-76
2021/07/14 01:33:44;;;;;;;19.08;16.02;;;;;;;;;;5050491;28;20439;-78
2021/07/14 01:36:15;;;;;;;20.58;16.98;;;;;;;;;;5053270;28;20029;-76
2021/07/14 01:38:44;;;;;;;20.95;17.20;;;;;;;;;;5051243;28;20148;-76
2021/07/14 01:41:13;;;;;;;19.20;17.30;;;;;;;;;;5053139;28;20037;-76
2021/07/14 01:43:44;;;;;;;20.83;17.67;;;;;;;;;;5051069;28;20373;-76
2021/07/14 01:46:12;;;;;;;18.58;16.90;;;;;;;;;;5052790;28;20021;-76
2021/07/14 01:48:41;;;;;;;18.90;16.90;;;;;;;;;;5042287;28;20029;-76
2021/07/14 01:51:08;;;;;;;18.58;16.77;;;;;;;;;;5033087;28;20432;-77
2021/07/14 01:53:37;;;;;;;19.50;16.55;;;;;;;;;;5032957;28;20473;-76
2021/07/14 01:56:11;;;;;;;18.17;16.40;;;;;;;;;;5031598;28;20434;-76
2021/07/14 01:58:40;;;;;;;21.20;17.60;;;;;;;;;;5033213;28;20052;-76
2021/07/14 02:01:07;;;;;;;21.30;16.98;;;;;;;;;;5015013;28;20059;-76
2021/07/14 02:06:03;;;;;;;19.98;16.95;;;;;;;;;;5032814;28;20033;-76
2021/07/14 02:08:29;;;;;;;18.00;16.08;;;;;;;;;;5034168;28;20048;-76
2021/07/14 02:10:58;;;;;;;19.30;16.80;;;;;;;;;;5032392;28;20473;-76
2021/07/14 02:13:26;;;;;;;17.63;15.75;;;;;;;;;;5037393;28;20400;-76
2021/07/14 02:15:54;;;;;;;20.65;18.02;;;;;;;;;;5047221;28;20037;-76
2021/07/14 02:18:24;;;;;;;19.08;16.88;;;;;;;;;;5046320;28;20063;-72
2021/07/14 02:20:51;;;;;;;22.27;18.02;;;;;;;;;;5051222;28;20052;-72
2021/07/14 02:23:17;;;;;;;22.52;18.08;;;;;;;;;;5052260;28;20028;-73
2021/07/14 02:25:42;;;;;;;22.20;17.50;;;;;;;;;;5033723;28;20044;-72
2021/07/14 02:28:07;;;;;;;18.77;16.45;;;;;;;;;;5052275;28;20473;-75
2021/07/14 02:30:33;;;;;;;19.02;17.02;;;;;;;;;;5051908;28;20024;-76
2021/07/14 02:33:07;;;;;;;19.30;17.40;;;;;;;;;;5051389;28;20028;-75
2021/07/14 02:35:43;;;;;;;18.60;16.27;;;;;;;;;;5051475;28;20036;-76
2021/07/14 02:38:22;;;;;;;18.83;16.80;;;;;;;;;;5050738;28;20380;-76
2021/07/14 02:41:22;;;;;;;18.52;15.50;;;;;;;;;;5051577;28;20032;-76
2021/07/14 02:43:51;;;;;;;21.52;17.02;;;;;;;;;;5051352;28;20056;-76
2021/07/14 02:46:26;;;;;;;20.77;17.58;;;;;;;;;;5051661;28;20074;-76
2021/07/14 02:48:54;;;;;;;19.00;16.02;;;;;;;;;;5048941;28;20025;-77
2021/07/14 02:51:22;;;;;;;18.63;16.70;;;;;;;;;;5051682;28;20063;-76
2021/07/14 02:53:51;;;;;;;18.27;16.15;;;;;;;;;;5051109;28;20103;-75
2021/07/14 02:56:20;;;;;;;18.05;16.15;;;;;;;;;;5050854;28;20488;-76
2021/07/14 02:58:51;;;;;;;19.10;16.35;;;;;;;;;;5050489;28;20028;-76
2021/07/14 03:01:19;;;;;;;17.52;15.60;;;;;;;;;;5051096;28;20025;-76
2021/07/14 03:03:47;;;;;;;16.52;14.75;;;;;;;;;;5049918;28;20037;-76
2021/07/14 03:06:12;;;;;;;17.45;15.10;;;;;;;;;;5049436;28;20067;-76
2021/07/14 03:08:38;;;;;;;16.33;14.60;;;;;;;;;;5044965;28;20534;-75
2021/07/14 03:11:04;;;;;;;16.77;15.07;;;;;;;;;;5050685;28;20112;-76
2021/07/14 03:13:32;;;;;;;16.13;14.27;;;;;;;;;;5054730;28;20339;-76
2021/07/14 03:15:58;;;;;;;15.57;13.98;;;;;;;;;;5056375;28;20032;-75
2021/07/14 03:18:27;;;;;;;16.13;14.50;;;;;;;;;;5054908;28;20023;-75
2021/07/14 03:20:54;;;;;;;17.00;15.30;;;;;;;;;;5070140;28;20375;-76
2021/07/14 03:23:21;;;;;;;17.02;15.23;;;;;;;;;;5067406;28;20012;-75
2021/07/14 03:25:53;;;;;;;17.30;14.60;;;;;;;;;;5050891;28;20033;-75
2021/07/14 03:28:20;;;;;;;16.45;14.13;;;;;;;;;;5069864;28;20336;-75
2021/07/14 03:30:47;;;;;;;14.95;13.57;;;;;;;;;;5051940;28;20082;-76
2021/07/14 03:33:13;;;;;;;16.17;14.45;;;;;;;;;;5052022;28;20388;-76
2021/07/14 03:35:39;;;;;;;14.63;12.90;;;;;;;;;;5052306;28;20033;-76
2021/07/14 03:38:09;;;;;;;15.18;13.68;;;;;;;;;;5050647;28;20085;-76
2021/07/14 03:40:36;;;;;;;14.60;13.20;;;;;;;;;;5052387;28;20021;-75
2021/07/14 03:43:02;;;;;;;14.38;12.85;;;;;;;;;;5063832;28;20036;-75
2021/07/14 03:45:28;;;;;;;14.65;12.75;;;;;;;;;;5050978;28;20090;-75
2021/07/14 03:47:55;;;;;;;13.95;12.60;;;;;;;;;;5062759;28;20028;-75
2021/07/14 03:50:21;;;;;;;13.50;12.30;;;;;;;;;;5053384;28;20037;-75
2021/07/14 03:52:48;;;;;;;13.30;12.00;;;;;;;;;;5050652;28;20491;-75
2021/07/14 03:55:15;;;;;;;13.38;12.10;;;;;;;;;;5050761;28;20503;-75
2021/07/14 03:57:41;;;;;;;13.43;12.07;;;;;;;;;;5050862;28;20058;-75
2021/07/14 04:00:08;;;;;;;13.40;12.10;;;;;;;;;;5062819;28;20043;-76
2021/07/14 04:02:36;;;;;;;12.25;11.02;;;;;;;;;;5070272;28;20472;-75
2021/07/14 04:05:03;;;;;;;11.73;10.68;;;;;;;;;;5054810;28;20029;-75
2021/07/14 04:07:29;;;;;;;15.07;12.13;;;;;;;;;;5053137;28;20410;-75
2021/07/14 04:09:55;;;;;;;13.88;11.63;;;;;;;;;;5050248;28;20477;-74
2021/07/14 04:12:20;;;;;;;12.18;10.98;;;;;;;;;;5066951;28;20021;-75
2021/07/14 04:14:46;;;;;;;12.98;11.77;;;;;;;;;;5053466;28;20529;-75
2021/07/14 04:17:12;;;;;;;13.70;12.38;;;;;;;;;;5031010;28;20061;-75
2021/07/14 04:19:40;;;;;;;12.85;11.75;;;;;;;;;;5044585;28;20027;-75
2021/07/14 04:22:09;;;;;;;12.52;11.32;;;;;;;;;;5054558;28;20040;-75
2021/07/14 04:24:34;;;;;;;12.23;11.05;;;;;;;;;;5055372;28;20032;-76
2021/07/14 04:27:00;;;;;;;11.75;10.50;;;;;;;;;;5048446;28;20094;-74
2021/07/14 04:29:26;;;;;;;12.60;11.25;;;;;;;;;;5035756;28;20426;-76
2021/07/14 04:31:51;;;;;;;12.90;11.18;;;;;;;;;;5039075;28;20029;-76
2021/07/14 04:34:17;;;;;;;11.73;10.63;;;;;;;;;;5041840;28;20027;-74
2021/07/14 04:36:43;;;;;;;11.73;10.57;;;;;;;;;;5055547;28;20029;-76
2021/07/14 04:39:09;;;;;;;13.55;11.00;;;;;;;;;;5041434;28;20512;-75
2021/07/14 04:41:35;;;;;;;12.68;11.40;;;;;;;;;;5044387;28;20098;-75
2021/07/14 04:44:03;;;;;;;11.50;10.30;;;;;;;;;;5039650;28;20056;-76
2021/07/14 04:46:30;;;;;;;12.43;11.10;;;;;;;;;;5048653;28;20104;-75
2021/07/14 04:48:56;;;;;;;11.82;10.73;;;;;;;;;;5049541;28;20028;-76
2021/07/14 04:51:22;;;;;;;12.68;11.30;;;;;;;;;;5036902;28;20639;-76
2021/07/14 04:53:48;;;;;;;15.05;11.00;;;;;;;;;;5037021;28;20365;-76
2021/07/14 04:56:16;;;;;;;11.20;10.07;;;;;;;;;;5047105;28;20021;-75
2021/07/14 04:58:43;;;;;;;12.23;10.80;;;;;;;;;;5028325;28;20029;-76
2021/07/14 05:01:08;;;;;;;11.80;10.70;;;;;;;;;;5045441;28;20043;-75
2021/07/14 05:03:34;;;;;;;12.13;10.93;;;;;;;;;;5035108;28;20021;-75
2021/07/14 05:05:59;;;;;;;12.73;11.48;;;;;;;;;;5036358;28;20027;-78
2021/07/14 05:08:25;;;;;;;12.27;10.95;;;;;;;;;;5035101;28;20033;-77
2021/07/14 05:10:50;;;;;;;12.77;11.38;;;;;;;;;;5040229;28;20056;-76
2021/07/14 05:13:17;;;;;;;13.13;11.93;;;;;;;;;;5053416;28;20273;-77
2021/07/14 05:15:47;;;;;;;14.10;12.20;;;;;;;;;;5064890;28;20080;-75
2021/07/14 05:18:13;;;;;;;13.15;11.85;;;;;;;;;;5053049;28;20044;-76
2021/07/14 05:20:40;;;;;;;14.43;12.30;;;;;;;;;;5054304;28;20045;-77
2021/07/14 05:23:07;;;;;;;14.05;12.77;;;;;;;;;;5053109;28;20063;-76
2021/07/14 05:25:33;;;;;;;16.88;12.25;;;;;;;;;;5053327;28;20029;-77
2021/07/14 05:27:59;;;;;;;12.38;11.18;;;;;;;;;;5066170;28;20032;-77
2021/07/14 05:30:25;;;;;;;13.75;11.20;;;;;;;;;;5056276;28;20021;-77
2021/07/14 05:32:50;;;;;;;12.90;11.30;;;;;;;;;;5073299;28;20024;-77
2021/07/14 05:35:16;;;;;;;14.10;12.10;;;;;;;;;;5059013;28;20647;-76
2021/07/14 05:37:41;;;;;;;12.88;11.65;;;;;;;;;;5054769;28;20029;-76
2021/07/14 05:40:07;;;;;;;11.73;10.73;;;;;;;;;;5060228;28;20029;-77
2021/07/14 05:42:33;;;;;;;12.85;10.60;;;;;;;;;;5058341;28;20484;-77
2021/07/14 05:44:58;;;;;;;12.27;10.63;;;;;;;;;;5069459;28;20031;-77
2021/07/14 05:47:24;;;;;;;12.55;10.70;;;;;;;;;;5093050;28;20437;-76
2021/07/14 05:49:50;;;;;;;12.65;10.68;;;;;;;;;;5064395;28;20403;-75
2021/07/14 05:52:16;;;;;;;11.90;10.57;;;;;;;;;;5071929;28;20025;-75
2021/07/14 05:54:42;;;;;;;11.75;10.50;;;;;;;;;;5055008;28;20074;-77
2021/07/14 05:57:08;;;;;;;11.45;10.32;;;;;;;;;;5057171;28;20025;-76
2021/07/14 05:59:34;;;;;;;11.20;10.07;;;;;;;;;;5056756;28;20139;-77
2021/07/14 06:01:59;;;;;;;11.02;9.90;;;;;;;;;;5054175;28;20057;-76
2021/07/14 06:04:25;;;;;;;11.15;9.98;;;;;;;;;;5057046;28;20052;-76
2021/07/14 06:06:50;;;;;;;10.30;9.40;;;;;;;;;;5058966;28;20424;-76
2021/07/14 06:09:16;;;;;;;11.63;10.45;;;;;;;;;;5060018;28;20077;-76
2021/07/14 06:11:41;;;;;;;10.85;9.75;;;;;;;;;;5069520;28;20507;-76
2021/07/14 06:14:08;;;;;;;10.65;9.55;;;;;;;;;;5052304;28;20143;-76
2021/07/14 06:16:34;;;;;;;10.25;9.32;;;;;;;;;;5052183;28;20079;-76
2021/07/14 06:18:59;;;;;;;10.88;9.35;;;;;;;;;;5037010;28;20487;-73
2021/07/14 06:21:25;;;;;;;10.88;9.35;;;;;;;;;;5070322;28;20046;-77
2021/07/14 06:23:51;;;;;;;11.52;10.43;;;;;;;;;;5071827;28;20020;-77
2021/07/14 06:26:17;;;;;;;10.60;9.50;;;;;;;;;;5069309;28;20039;-77
2021/07/14 06:28:42;;;;;;;11.63;9.50;;;;;;;;;;5062283;28;20033;-78
2021/07/14 06:31:08;;;;;;;9.98;9.07;;;;;;;;;;5057712;28;20388;-75
2021/07/14 06:33:36;;;;;;;9.93;8.93;;;;;;;;;;5054003;28;20021;-77
2021/07/14 06:36:03;;;;;;;10.82;8.80;;;;;;;;;;5059494;28;20033;-76
2021/07/14 06:38:29;;;;;;;9.20;8.30;;;;;;;;;;5082859;28;20031;-76
2021/07/14 06:40:55;;;;;;;9.90;8.90;;;;;;;;;;5054875;28;20025;-77
2021/07/14 06:43:20;;;;;;;20.55;9.95;;;;;;;;;;5056350;28;20016;-77
2021/07/14 06:45:49;;;;;;;9.40;8.48;;;;;;;;;;5070030;28;20439;-76
2021/07/14 06:48:15;;;;;;;9.38;8.43;;;;;;;;;;5065200;28;20391;-76
2021/07/14 06:50:41;;;;;;;12.43;8.70;;;;;;;;;;5059403;28;20032;-78
2021/07/14 06:53:07;;;;;;;12.23;8.70;;;;;;;;;;5059348;28;20111;-76
2021/07/14 06:55:35;;;;;;;10.07;8.80;;;;;;;;;;5070568;28;20025;-75
2021/07/14 06:58:00;;;;;;;9.23;8.32;;;;;;;;;;5058632;28;20454;-78
2021/07/14 07:00:27;;;;;;;9.48;8.57;;;;;;;;;;5052070;28;20021;-76
2021/07/14 07:02:53;;;;;;;10.02;9.13;;;;;;;;;;5053059;28;20020;-75
2021/07/14 07:05:18;;;;;;;10.45;8.93;;;;;;;;;;5062206;28;20039;-75
2021/07/14 07:07:44;;;;;;;11.75;9.02;;;;;;;;;;5057775;28;20023;-76
2021/07/14 07:10:10;;;;;;;9.40;8.48;;;;;;;;;;5067548;28;20028;-73
2021/07/14 07:12:36;;;;;;;12.45;8.73;;;;;;;;;;5060915;28;20074;-74
2021/07/14 07:15:02;;;;;;;8.68;7.93;;;;;;;;;;5062700;28;20036;-75
2021/07/14 07:17:28;;;;;;;9.10;8.13;;;;;;;;;;5054932;28;20035;-75
2021/07/14 07:19:53;;;;;;;9.10;8.20;;;;;;;;;;5054383;28;20020;-76
2021/07/14 07:22:18;;;;;;;9.57;8.57;;;;;;;;;;5069200;28;20032;-76
2021/07/14 07:24:44;;;;;;;9.75;8.80;;;;;;;;;;5068272;28;20035;-75
2021/07/14 07:27:09;;;;;;;9.80;8.90;;;;;;;;;;5055899;28;20017;-76
2021/07/14 07:29:38;;;;;;;9.55;8.43;;;;;;;;;;5062016;28;20016;-74
2021/07/14 07:32:05;;;;;;;8.75;7.85;;;;;;;;;;5054528;28;20025;-76
2021/07/14 07:34:30;;;;;;;8.30;7.50;;;;;;;;;;5066003;28;20028;-74
2021/07/14 07:36:56;;;;;;;8.32;7.40;;;;;;;;;;5067736;28;20055;-74
2021/07/14 07:39:23;;;;;;;8.38;7.57;;;;;;;;;;5056290;28;20419;-74
2021/07/14 07:41:48;;;;;;;8.32;6.85;;;;;;;;;;5061319;28;20028;-74
2021/07/14 07:44:14;;;;;;;8.05;7.25;;;;;;;;;;5069673;28;20107;-73
2021/07/14 07:46:41;;;;;;;9.00;6.97;;;;;;;;;;5070637;28;20433;-74
2021/07/14 07:49:07;;;;;;;9.13;7.13;;;;;;;;;;5070691;28;20055;-78
2021/07/14 07:51:34;;;;;;;8.00;7.13;;;;;;;;;;5069571;28;20499;-73
2021/07/14 07:54:00;;;;;;;7.60;6.90;;;;;;;;;;5068991;28;20055;-73
2021/07/14 07:56:31;;;;;;;8.73;7.78;;;;;;;;;;5068448;28;20063;-76
2021/07/14 07:58:58;;;;;;;9.10;7.82;;;;;;;;;;5062333;28;20017;-78
2021/07/14 08:01:24;;;;;;;8.15;7.38;;;;;;;;;;5066756;28;20056;-75
2021/07/14 08:03:49;;;;;;;8.95;8.05;;;;;;;;;;5073853;28;20498;-72
2021/07/14 08:06:15;;;;;;;8.32;7.53;;;;;;;;;;5062321;28;20086;-73
2021/07/14 08:08:40;;;;;;;10.13;7.45;;;;;;;;;;5072181;28;20059;-74
2021/07/14 08:11:08;;;;;;;8.23;7.53;;;;;;;;;;5071388;28;20052;-74
2021/07/14 08:13:34;;;;;;;9.23;7.55;;;;;;;;;;5068711;28;20045;-74
2021/07/14 08:15:59;;;;;;;8.40;7.55;;;;;;;;;;5074299;28;20028;-75
2021/07/14 08:18:25;;;;;;;8.27;7.28;;;;;;;;;;5074568;28;20024;-76
2021/07/14 08:20:53;;;;;;;9.20;7.20;;;;;;;;;;5072043;28;20020;-74
2021/07/14 08:23:21;;;;;;;8.82;7.93;;;;;;;;;;5058584;28;20052;-76
2021/07/14 08:25:47;;;;;;;8.80;8.00;;;;;;;;;;5068474;28;20029;-73
2021/07/14 08:28:14;;;;;;;9.30;7.63;;;;;;;;;;5072910;28;20035;-75
2021/07/14 08:30:40;;;;;;;8.70;7.90;;;;;;;;;;5061981;28;20041;-74
2021/07/14 08:33:05;;;;;;;9.93;7.60;;;;;;;;;;5069426;28;20468;-77
2021/07/14 08:35:31;;;;;;;8.57;7.53;;;;;;;;;;5062866;28;20150;-74
2021/07/14 08:37:56;;;;;;;8.70;7.57;;;;;;;;;;5070145;28;20170;-77
2021/07/14 08:40:22;;;;;;;7.72;6.90;;;;;;;;;;5054811;28;20393;-75
2021/07/14 08:42:53;;;;;;;9.23;7.63;;;;;;;;;;5071204;28;20737;-73
2021/07/14 08:45:20;;;;;;;8.77;7.90;;;;;;;;;;5056443;28;20037;-73
2021/07/14 08:47:46;;;;;;;7.90;7.20;;;;;;;;;;5059496;28;20487;-72
2021/07/14 08:50:13;;;;;;;8.07;7.28;;;;;;;;;;5065219;28;20083;-74
2021/07/14 08:52:42;;;;;;;7.43;6.72;;;;;;;;;;5063370;28;20395;-75
2021/07/14 08:55:13;;;;;;;7.82;7.03;;;;;;;;;;5058946;28;20060;-75
2021/07/14 08:57:38;;;;;;;9.43;7.60;;;;;;;;;;5063399;28;20028;-74
2021/07/14 09:00:11;;;;;;;8.48;6.93;;;;;;;;;;5060547;28;20040;-74
2021/07/14 09:02:41;;;;;;;;;;;;;;;;;;5054020;28;20025;-73
2021/07/14 09:05:07;;;;;;;10.45;7.18;;;;;;;;;;5060045;28;19978;-74
2021/07/14 09:07:35;;;;;;;7.95;6.88;;;;;;;;;;5073332;28;20031;-73
2021/07/14 09:10:01;;;;;;;8.85;7.28;;;;;;;;;;5079765;28;20471;-73
2021/07/14 09:12:42;;;;;;;10.25;6.95;;;;;;;;;;5093666;28;20035;-73
2021/07/14 09:15:10;;;;;;;7.70;6.82;;;;;;;;;;5052931;28;20140;-73
2021/07/14 09:17:45;;;;;;;8.18;7.05;;;;;;;;;;5072169;28;20100;-74
2021/07/14 09:20:11;;;;;;;8.13;7.32;;;;;;;;;;5071124;28;20060;-74
2021/07/14 09:22:37;;;;;;;7.60;6.70;;;;;;;;;;5068728;28;20079;-73
2021/07/14 09:25:14;;;;;;;8.27;6.80;;;;;;;;;;5059325;28;20508;-73
2021/07/14 09:27:55;;;;;;;8.60;7.72;;;;;;;;;;5054050;28;20028;-73
2021/07/14 09:30:23;;;;;;;8.82;7.97;;;;;;;;;;5061733;28;20032;-75
2021/07/14 09:32:56;;;;;;;8.68;7.03;;;;;;;;;;5066634;28;20028;-73
2021/07/14 09:35:39;;;;;;;8.63;7.05;;;;;;;;;;5057022;28;20435;-73
2021/07/14 09:38:17;;;;;;;8.10;7.10;;;;;;;;;;5063350;28;20025;-75
2021/07/14 09:40:51;;;;;;;7.75;7.00;;;;;;;;;;5074115;28;20024;-74
2021/07/14 09:43:19;;;;;;;8.55;6.40;;;;;;;;;;5065858;28;20071;-74
2021/07/14 09:45:51;;;;;;;7.47;6.70;;;;;;;;;;5055209;28;20477;-74
2021/07/14 09:48:26;;;;;;;12.90;7.00;;;;;;;;;;5054599;28;20016;-73
2021/07/14 09:50:56;;;;;;;9.98;7.05;;;;;;;;;;5065625;28;20032;-77
2021/07/14 09:53:24;;;;;;;8.15;7.13;;;;;;;;;;5062866;28;20044;-76
2021/07/14 09:55:53;;;;;;;8.25;6.88;;;;;;;;;;5064537;28;20056;-77
2021/07/14 09:58:27;;;;;;;9.30;6.68;;;;;;;;;;5054514;28;20032;-75
2021/07/14 10:01:03;;;;;;;8.52;6.90;;;;;;;;;;5057146;28;20023;-76
2021/07/14 10:03:37;;;;;;;8.90;6.80;;;;;;;;;;5073132;28;20042;-77
2021/07/14 10:06:06;;;;;;;9.52;6.85;;;;;;;;;;5073084;28;20112;-76
2021/07/14 10:08:33;;;;;;;8.60;6.75;;;;;;;;;;5072987;28;20028;-77
2021/07/14 10:11:20;;;;;;;7.82;6.95;;;;;;;;;;5066510;28;20381;-75
2021/07/14 10:14:06;;;;;;;8.30;6.72;;;;;;;;;;5052850;28;20450;-75
2021/07/14 10:16:39;;;;;;;9.43;7.10;;;;;;;;;;5061467;28;20028;-75
2021/07/14 10:19:19;;;;;;;10.23;7.68;;;;;;;;;;5054774;28;20028;-75
2021/07/14 10:21:49;;;;;;;12.88;7.10;;;;;;;;;;5055249;28;20040;-72
2021/07/14 10:24:17;;;;;;;8.98;7.13;;;;;;;;;;5062349;28;20528;-77
2021/07/14 10:26:47;;;;;;;8.45;7.65;;;;;;;;;;5061221;28;20151;-78
2021/07/14 10:29:14;;;;;;;8.63;7.47;;;;;;;;;;5070093;28;20078;-75
2021/07/14 10:31:40;;;;;;;8.23;7.20;;;;;;;;;;5058362;28;20058;-75
2021/07/14 10:34:08;;;;;;;9.10;7.88;;;;;;;;;;5056221;28;20037;-76
2021/07/14 10:36:36;;;;;;;8.93;8.02;;;;;;;;;;5054350;28;20083;-73
2021/07/14 10:39:14;;;;;;;8.63;7.72;;;;;;;;;;5060910;28;20031;-78
2021/07/14 10:41:41;;;;;;;8.80;7.35;;;;;;;;;;5064720;28;20037;-75
2021/07/14 10:44:07;;;;;;;8.98;7.75;;;;;;;;;;5066317;28;20463;-77
2021/07/14 10:46:34;;;;;;;10.48;7.90;;;;;;;;;;5062043;28;20029;-75
2021/07/14 10:49:03;;;;;;;8.27;7.50;;;;;;;;;;5067846;28;20052;-73
2021/07/14 10:51:31;;;;;;;9.25;7.70;;;;;;;;;;5071921;28;20051;-76
2021/07/14 10:54:03;;;;;;;11.15;8.20;;;;;;;;;;5057826;28;20063;-73
2021/07/14 10:56:34;;;;;;;8.93;7.07;;;;;;;;;;5066256;28;20028;-75
2021/07/14 10:59:00;;;;;;;9.18;8.25;;;;;;;;;;5072612;28;20357;-72
2021/07/14 11:01:51;;;;;;;10.75;7.65;;;;;;;;;;5069431;28;20041;-72
2021/07/14 11:04:26;;;;;;;10.00;8.15;;;;;;;;;;5052363;28;20388;-73
2021/07/14 11:07:03;;;;;;;9.15;8.23;;;;;;;;;;5052599;28;20036;-76
2021/07/14 11:09:43;;;;;;;8.38;7.57;;;;;;;;;;5055465;28;20052;-76
2021/07/14 11:12:11;;;;;;;9.02;7.85;;;;;;;;;;5065387;28;20036;-73
2021/07/14 11:14:42;;;;;;;8.23;7.28;;;;;;;;;;5065688;28;20041;-75
2021/07/14 11:17:10;;;;;;;8.73;7.90;;;;;;;;;;5056551;28;20108;-76
2021/07/14 11:19:49;;;;;;;8.23;7.53;;;;;;;;;;5063350;28;20020;-76
2021/07/14 11:22:16;;;;;;;8.73;7.93;;;;;;;;;;5062681;28;20111;-78
2021/07/14 11:24:46;;;;;;;8.50;7.70;;;;;;;;;;5069916;28;20473;-73
2021/07/14 11:27:27;;;;;;;7.97;7.28;;;;;;;;;;5070044;28;20032;-73
2021/07/14 11:29:57;;;;;;;8.05;7.25;;;;;;;;;;5057475;28;20025;-75
2021/07/14 11:32:34;;;;;;;8.80;7.90;;;;;;;;;;5061105;28;20036;-74
2021/07/14 11:35:14;;;;;;;7.90;7.22;;;;;;;;;;5065735;28;20369;-73
2021/07/14 11:37:57;;;;;;;8.32;7.53;;;;;;;;;;5062249;28;20476;-78
2021/07/14 11:40:23;;;;;;;9.10;8.00;;;;;;;;;;5053168;28;20048;-77
2021/07/14 11:42:56;;;;;;;9.30;7.28;;;;;;;;;;5053489;28;20052;-77
2021/07/14 11:45:36;;;;;;;8.00;7.15;;;;;;;;;;5052401;28;20056;-77
2021/07/14 11:48:10;;;;;;;8.82;7.40;;;;;;;;;;5052989;28;20032;-77
2021/07/14 11:50:42;;;;;;;8.95;7.57;;;;;;;;;;5051653;28;20037;-79
2021/07/14 11:53:31;;;;;;;9.07;7.82;;;;;;;;;;5059496;28;20040;-79
2021/07/14 11:56:21;;;;;;;9.20;7.40;;;;;;;;;;5054374;28;20460;-74
2021/07/14 11:59:11;;;;;;;8.02;7.32;;;;;;;;;;5052318;28;20048;-77
2021/07/14 12:01:45;;;;;;;7.43;6.72;;;;;;;;;;5061446;28;20481;-76
2021/07/14 12:04:11;;;;;;;9.13;6.25;;;;;;;;;;5054802;28;20047;-74
2021/07/14 12:06:39;;;;;;;7.18;5.95;;;;;;;;;;5061188;28;20024;-77
2021/07/14 12:09:04;;;;;;;8.90;7.13;;;;;;;;;;5064010;28;20450;-76
2021/07/14 12:11:30;;;;;;;7.50;6.80;;;;;;;;;;5053704;28;20020;-79
2021/07/14 12:13:56;;;;;;;7.57;6.30;;;;;;;;;;5048011;28;20053;-74
2021/07/14 12:16:27;;;;;;;6.85;5.97;;;;;;;;;;5040893;28;20031;-81
2021/07/14 12:18:53;;;;;;;6.32;5.70;;;;;;;;;;5016744;28;20037;-79
2021/07/14 12:21:41;;;;;;;6.40;5.80;;;;;;;;;;5049186;28;20029;-80
2021/07/14 12:24:26;;;;;;;6.70;5.68;;;;;;;;;;5032850;28;20029;-79
2021/07/14 12:27:01;;;;;;;6.75;5.72;;;;;;;;;;5024993;28;20068;-72
2021/07/14 12:29:27;;;;;;;6.18;5.57;;;;;;;;;;5049832;28;20025;-78
2021/07/14 12:31:53;;;;;;;6.82;5.95;;;;;;;;;;5030624;28;20047;-76
2021/07/14 12:34:29;;;;;;;5.80;5.22;;;;;;;;;;5050110;28;20469;-77
2021/07/14 12:36:56;;;;;;;6.82;5.20;;;;;;;;;;5043505;28;20032;-76
2021/07/14 12:39:31;;;;;;;8.25;5.60;;;;;;;;;;5033917;28;20032;-76
2021/07/14 12:42:00;;;;;;;7.00;5.40;;;;;;;;;;5018949;28;20389;-77
2021/07/14 12:44:27;;;;;;;5.85;5.25;;;;;;;;;;5051852;28;20112;-78
2021/07/14 12:46:53;;;;;;;6.15;5.55;;;;;;;;;;5053124;28;20584;-78
2021/07/14 12:49:21;;;;;;;8.30;5.35;;;;;;;;;;5034491;28;20075;-78
2021/07/14 12:52:16;;;;;;;7.05;5.10;;;;;;;;;;5045976;28;20346;-75
2021/07/14 12:54:42;;;;;;;8.30;5.30;;;;;;;;;;5047988;28;20468;-75
2021/07/14 12:57:30;;;;;;;5.45;4.95;;;;;;;;;;5048067;28;20033;-79
2021/07/14 12:59:59;;;;;;;6.28;4.60;;;;;;;;;;5046271;28;20505;-78
2021/07/14 13:02:35;;;;;;;5.20;4.70;;;;;;;;;;5047397;28;20021;-76
2021/07/14 13:05:01;;;;;;;4.78;4.32;;;;;;;;;;5034429;28;20030;-77
2021/07/14 13:07:31;;;;;;;5.00;4.50;;;;;;;;;;5035656;28;20067;-79
2021/07/14 13:10:00;;;;;;;6.18;4.80;;;;;;;;;;5038812;28;20044;-77
2021/07/14 13:12:29;;;;;;;7.07;5.55;;;;;;;;;;5034281;28;20551;-76
2021/07/14 13:14:55;;;;;;;6.38;4.57;;;;;;;;;;5041221;28;20052;-78
2021/07/14 13:17:31;;;;;;;6.07;4.90;;;;;;;;;;5036969;28;20542;-75
2021/07/14 13:20:07;;;;;;;6.57;5.03;;;;;;;;;;5040457;28;20468;-76
2021/07/14 13:22:33;;;;;;;6.43;5.32;;;;;;;;;;5046441;28;20044;-77
2021/07/14 13:25:18;;;;;;;5.57;5.03;;;;;;;;;;5047879;28;20032;-76
2021/07/14 13:27:48;;;;;;;5.15;4.75;;;;;;;;;;5043445;28;20031;-73
2021/07/14 13:30:30;;;;;;;5.60;4.35;;;;;;;;;;5033877;28;20048;-75
2021/07/14 13:33:12;;;;;;;4.30;3.63;;;;;;;;;;5021403;28;20358;-75
2021/07/14 13:35:44;;;;;;;5.95;4.10;;;;;;;;;;5040549;28;20028;-76
2021/07/14 13:38:37;;;;;;;6.03;4.28;;;;;;;;;;5040022;28;20484;-76
2021/07/14 13:41:09;;;;;;;5.75;4.50;;;;;;;;;;5041874;28;20037;-78
2021/07/14 13:43:46;;;;;;;5.25;4.57;;;;;;;;;;5042775;28;20029;-78
2021/07/14 13:46:24;;;;;;;5.15;4.65;;;;;;;;;;5042165;28;20032;-75
2021/07/14 13:49:11;;;;;;;5.20;4.70;;;;;;;;;;5038099;28;20403;-78
2021/07/14 13:51:53;;;;;;;5.00;4.50;;;;;;;;;;5043252;28;20029;-75
2021/07/14 13:54:19;;;;;;;6.57;5.03;;;;;;;;;;5043546;28;20140;-80
2021/07/14 13:56:46;;;;;;;6.88;4.70;;;;;;;;;;5046307;28;20111;-76
2021/07/14 13:59:26;;;;;;;6.07;4.47;;;;;;;;;;5052834;28;20052;-76
2021/07/14 14:01:58;;;;;;;6.32;4.78;;;;;;;;;;5053806;28;20436;-76
2021/07/14 14:04:25;;;;;;;6.50;4.93;;;;;;;;;;5053300;28;20024;-76
2021/07/14 14:06:51;;;;;;;6.63;5.28;;;;;;;;;;5052200;28;20074;-77
2021/07/14 14:09:21;;;;;;;5.13;4.55;;;;;;;;;;5051649;28;20021;-75
2021/07/14 14:11:47;;;;;;;7.50;4.60;;;;;;;;;;5052053;28;20028;-75
2021/07/14 14:14:13;;;;;;;5.82;4.78;;;;;;;;;;5051314;28;20053;-75
2021/07/14 14:16:39;;;;;;;5.40;4.90;;;;;;;;;;5041017;28;20083;-75
2021/07/14 14:19:15;;;;;;;8.10;5.20;;;;;;;;;;5034733;28;20024;-74
2021/07/14 14:21:51;;;;;;;6.80;5.20;;;;;;;;;;5040366;28;20029;-75
2021/07/14 14:24:17;;;;;;;5.60;5.10;;;;;;;;;;5034608;28;20057;-77
2021/07/14 14:26:46;;;;;;;6.63;5.22;;;;;;;;;;5038085;28;20422;-78
2021/07/14 14:29:12;;;;;;;6.75;5.40;;;;;;;;;;5042115;28;20413;-76
2021/07/14 14:31:38;;;;;;;7.05;5.65;;;;;;;;;;5049582;28;20055;-76
2021/07/14 14:34:03;;;;;;;9.50;5.70;;;;;;;;;;5044160;28;20021;-75
2021/07/14 14:36:31;;;;;;;7.10;5.65;;;;;;;;;;5036201;28;20040;-76
2021/07/14 14:38:56;;;;;;;5.80;5.07;;;;;;;;;;5039285;28;20017;-77
2021/07/14 14:41:22;;;;;;;7.65;5.68;;;;;;;;;;5035872;28;20031;-79
2021/07/14 14:43:47;;;;;;;7.53;5.55;;;;;;;;;;5041081;28;20033;-81
2021/07/14 14:46:14;;;;;;;6.00;5.40;;;;;;;;;;5038982;28;20037;-74
2021/07/14 14:48:39;;;;;;;7.43;5.70;;;;;;;;;;5043449;28;20033;-81
2021/07/14 14:51:09;;;;;;;7.13;5.28;;;;;;;;;;5045216;28;20032;-78
2021/07/14 14:53:35;;;;;;;5.75;5.25;;;;;;;;;;5035578;28;20036;-76
2021/07/14 14:56:01;;;;;;;9.10;6.03;;;;;;;;;;5047297;28;20025;-76